Keeling, Virginia
Current Conditions -  °F | °C
As of 1:53 AM on Thursday 23 Oct 2014 (Local Time) from KDAN Reporting Station
Clear Clear  
Wind Chill: 51°   Ceiling: Unl
Heat Index: 51°   Visibility: 10mi
Dew Point: 39°   Wind: 7mph
Humidity: 63%   Direction: 300°WNW
Pressure: 30.03"   Gusts: NA
Location:  36.73°N, 79.3°W
Report Text: KDAN 230553Z AUTO 30006KT 10SM CLR 11/04 A3003 RMK AO2 SLP162 T01060039 10133 20094 55007
Loading
Personal Weather Stations






























Interactive Weather Map
Tropical Storm Tracking
New forecast layout! Learn more

10-Day Weather Forecast

Advertisements
Track Severe Weather on mobile